Time;durP1;ratioP1;P1;durP2;ratioP2;P2;SDS_P1;SDS_P2;PMS_P1;PMS_P2;Temp;Humidity;BMP_temperature;BMP_pressure;BME280_temperature;BME280_humidity;BME280_pressure;Samples;Min_cycle;Max_cycle;Signal;HPM_P1;HPM_P2
2023/08/26 00:00:17;;;;;;;24.77;18.45;;;;;;;18.97;67.44;99803.25;20974546;28;20274;-85
2023/08/26 00:10:20;;;;;;;22.10;15.82;;;;;;;18.48;67.95;99810.25;20943185;28;20223;-85
2023/08/26 00:20:22;;;;;;;16.13;13.13;;;;;;;17.96;67.65;99802.06;20944799;28;20287;-86
2023/08/26 00:30:25;;;;;;;17.48;14.13;;;;;;;18.06;68.25;99807.84;20951886;28;20309;-85
2023/08/26 00:40:27;;;;;;;19.27;15.05;;;;;;;17.90;69.66;99810.13;20969709;28;20228;-84
2023/08/26 00:50:30;;;;;;;23.73;16.20;;;;;;;18.14;69.74;99800.19;20958957;28;20690;-84
2023/08/26 01:00:33;;;;;;;22.30;18.08;;;;;;;18.12;70.01;99796.94;20949398;28;20313;-85
2023/08/26 01:10:46;;;;;;;31.67;22.52;;;;;;;18.12;69.70;99809.13;20947257;28;20264;-83
2023/08/26 01:20:47;;;;;;;34.42;22.52;;;;;;;18.02;71.29;99820.44;20963623;28;20286;-84
2023/08/26 01:30:51;;;;;;;30.77;22.10;;;;;;;17.59;73.79;99842.72;20948078;28;20224;-83
2023/08/26 01:40:54;;;;;;;32.05;24.63;;;;;;;18.15;71.50;99841.72;20948710;28;20230;-83
2023/08/26 01:50:57;;;;;;;33.97;23.30;;;;;;;18.09;71.74;99848.97;20973378;28;20251;-82
2023/08/26 02:01:04;;;;;;;28.02;19.77;;;;;;;17.89;69.94;99839.78;20987365;28;20199;-83
2023/08/26 02:11:09;;;;;;;24.08;18.05;;;;;;;17.55;69.91;99830.47;20990775;28;20222;-83
2023/08/26 02:21:12;;;;;;;24.77;17.02;;;;;;;17.71;69.31;99833.09;20924167;28;20604;-82
2023/08/26 02:31:15;;;;;;;24.25;16.33;;;;;;;17.32;69.87;99838.31;20928055;28;20220;-84
2023/08/26 02:41:16;;;;;;;20.13;13.13;;;;;;;17.45;67.90;99842.53;20915099;28;20253;-85
2023/08/26 02:51:19;;;;;;;13.25;10.98;;;;;;;17.36;69.11;99842.84;20932816;28;20294;-86
2023/08/26 03:01:21;;;;;;;14.00;10.38;;;;;;;17.05;67.92;99886.66;20943411;28;20283;-88
2023/08/26 03:11:24;;;;;;;8.48;5.97;;;;;;;16.84;63.40;99897.72;20964705;28;20310;-87
2023/08/26 03:21:26;;;;;;;3.47;1.47;;;;;;;15.74;58.77;99924.84;20941740;28;20474;-87
2023/08/26 03:31:29;;;;;;;3.17;1.00;;;;;;;15.52;57.54;99925.63;20922734;28;20232;-88
2023/08/26 03:41:31;;;;;;;3.50;1.90;;;;;;;15.72;59.34;99937.81;20925824;28;20237;-83
2023/08/26 03:51:34;;;;;;;5.80;1.60;;;;;;;15.16;59.74;99946.69;20943913;28;20683;-86
2023/08/26 04:01:36;;;;;;;2.13;1.57;;;;;;;15.69;58.91;99949.88;20944383;28;20195;-86
2023/08/26 04:11:40;;;;;;;5.35;1.30;;;;;;;14.59;60.57;99952.94;20949006;28;20674;-86
2023/08/26 04:21:42;;;;;;;2.50;0.95;;;;;;;14.82;59.68;99982.25;20935436;28;20227;-83
2023/08/26 04:31:45;;;;;;;3.22;1.35;;;;;;;15.13;58.49;99983.44;20930359;28;20246;-87
2023/08/26 04:41:46;;;;;;;3.50;1.37;;;;;;;14.59;59.89;99992.56;20926097;28;20214;-83
2023/08/26 04:51:53;;;;;;;4.93;1.33;;;;;;;14.31;62.84;100015.28;20934369;28;20530;-86
2023/08/26 05:01:54;;;;;;;3.60;1.20;;;;;;;13.93;61.57;100021.44;20931986;28;20669;-86
2023/08/26 05:11:57;;;;;;;3.57;1.20;;;;;;;14.28;61.56;100022.50;20942732;28;20211;-82
2023/08/26 05:21:59;;;;;;;4.03;1.70;;;;;;;14.82;59.82;100019.06;20922099;28;20286;-86
2023/08/26 05:32:02;;;;;;;7.27;1.43;;;;;;;14.64;61.64;100017.81;20929616;28;20220;-87
2023/08/26 05:42:04;;;;;;;3.75;0.93;;;;;;;14.92;58.86;100027.03;20942288;28;20672;-87
2023/08/26 05:52:07;;;;;;;3.47;1.10;;;;;;;14.78;58.42;100035.19;20937425;28;20226;-86
2023/08/26 06:02:09;;;;;;;2.65;0.88;;;;;;;15.36;57.69;100032.59;20953887;28;20519;-86
2023/08/26 06:12:12;;;;;;;3.53;1.00;;;;;;;15.03;56.98;100035.84;20946058;28;20224;-87
2023/08/26 06:22:14;;;;;;;4.23;1.03;;;;;;;15.32;56.50;100021.19;20932129;28;20276;-85
2023/08/26 06:32:17;;;;;;;1.65;0.60;;;;;;;15.15;61.29;100021.56;20930929;28;20230;-90
2023/08/26 06:42:19;;;;;;;1.70;0.50;;;;;;;14.56;58.39;100032.94;20975271;28;20631;-87
2023/08/26 06:52:22;;;;;;;0.80;0.60;;;;;;;15.28;56.49;100042.13;20931657;28;20238;-85
2023/08/26 07:02:24;;;;;;;3.60;0.83;;;;;;;15.51;55.07;100028.91;20946561;28;20570;-84
2023/08/26 07:12:27;;;;;;;1.87;0.80;;;;;;;15.04;54.63;100038.31;20923563;28;20227;-86
2023/08/26 07:22:29;;;;;;;3.97;0.75;;;;;;;15.93;53.99;100023.38;20959058;28;20205;-85
2023/08/26 07:32:32;;;;;;;1.25;0.52;;;;;;;15.30;54.83;100039.75;20921464;28;20281;-85
2023/08/26 07:42:35;;;;;;;5.10;1.73;;;;;;;15.75;55.73;100034.31;20907501;28;20681;-88
2023/08/26 07:52:38;;;;;;;2.20;0.40;;;;;;;15.69;54.85;100035.81;20926978;28;20220;-85
2023/08/26 08:02:40;;;;;;;2.40;0.60;;;;;;;16.47;53.36;100037.47;20898183;28;20754;-85
2023/08/26 08:12:43;;;;;;;1.77;0.50;;;;;;;17.15;52.81;100022.47;20928958;28;20224;-84
2023/08/26 08:22:45;;;;;;;1.65;0.80;;;;;;;17.38;50.19;100024.50;20906222;28;20210;-85
2023/08/26 08:32:51;;;;;;;1.30;0.45;;;;;;;16.45;51.20;100034.19;20892242;28;20727;-84
2023/08/26 08:42:54;;;;;;;2.03;0.70;;;;;;;16.81;49.24;100046.25;20902712;28;20238;-82
2023/08/26 08:52:58;;;;;;;1.10;0.40;;;;;;;16.91;48.74;100045.59;20907485;28;20220;-82
2023/08/26 09:03:01;;;;;;;3.20;0.45;;;;;;;17.14;47.61;100063.50;20891507;28;20203;-82
2023/08/26 09:13:05;;;;;;;2.55;0.50;;;;;;;17.65;48.65;100046.03;20890211;28;20617;-82
2023/08/26 09:23:07;;;;;;;1.92;0.80;;;;;;;17.79;46.08;100046.25;20885723;28;20191;-85
2023/08/26 09:33:14;;;;;;;1.83;0.68;;;;;;;17.85;47.06;100055.25;20890626;28;20277;-82
2023/08/26 09:43:16;;;;;;;2.03;0.60;;;;;;;18.13;46.54;100043.47;20889879;28;20243;-82
2023/08/26 09:53:32;;;;;;;1.60;0.32;;;;;;;18.60;45.12;100039.94;20882779;28;20234;-82
2023/08/26 10:03:35;;;;;;;2.25;0.30;;;;;;;18.65;44.50;100039.63;20900172;28;20200;-81
2023/08/26 10:13:38;;;;;;;2.00;0.60;;;;;;;19.02;44.28;100055.88;20890110;28;20223;-82
2023/08/26 10:23:41;;;;;;;2.03;0.30;;;;;;;18.33;45.43;100064.88;20880413;28;20204;-83
2023/08/26 10:34:13;;;;;;;1.05;0.40;;;;;;;19.48;41.66;100062.81;20878659;28;20223;-82
2023/08/26 10:44:15;;;;;;;1.45;0.40;;;;;;;18.87;41.96;100074.88;20865611;28;20231;-82
2023/08/26 10:54:31;;;;;;;0.88;0.30;;;;;;;18.94;41.43;100055.00;20878048;28;20227;-82
2023/08/26 11:04:32;;;;;;;1.55;0.40;;;;;;;19.20;42.21;100049.13;20864361;28;20210;-82
2023/08/26 11:14:36;;;;;;;1.25;0.28;;;;;;;19.18;41.60;100048.69;20866262;28;20219;-82
2023/08/26 11:24:37;;;;;;;1.63;0.30;;;;;;;19.49;39.98;100041.59;20872569;28;20203;-83
2023/08/26 11:34:40;;;;;;;1.00;0.38;;;;;;;19.92;38.92;100042.69;20885882;28;20520;-83
2023/08/26 11:44:45;;;;;;;1.95;0.20;;;;;;;20.08;37.91;100021.59;20872110;28;20726;-83
2023/08/26 11:54:53;;;;;;;0.50;0.13;;;;;;;20.64;36.03;100030.38;20890257;28;20219;-83
2023/08/26 12:04:58;;;;;;;1.95;0.20;;;;;;;20.94;37.14;100029.19;20893530;28;20595;-82
2023/08/26 12:15:07;;;;;;;1.08;0.32;;;;;;;20.72;36.97;100023.44;20899914;28;20215;-81
2023/08/26 12:25:09;;;;;;;0.70;0.30;;;;;;;20.24;36.06;100024.91;20887743;28;20192;-83
2023/08/26 12:35:12;;;;;;;2.22;0.20;;;;;;;20.18;38.06;100023.66;20897758;28;20228;-81
2023/08/26 12:45:14;;;;;;;4.57;0.30;;;;;;;21.31;36.68;100021.03;20883745;28;20231;-81
2023/08/26 12:55:17;;;;;;;0.77;0.20;;;;;;;21.01;36.19;100018.56;20889135;28;20755;-81
2023/08/26 13:05:19;;;;;;;2.33;0.20;;;;;;;21.41;35.27;100028.81;20884549;28;20614;-82
2023/08/26 13:15:23;;;;;;;2.33;0.47;;;;;;;20.30;35.60;100034.72;20902505;28;20226;-81
2023/08/26 13:25:24;;;;;;;1.52;0.30;;;;;;;20.35;36.16;100037.22;20892717;28;20206;-82
2023/08/26 13:35:28;;;;;;;0.63;0.30;;;;;;;20.67;37.72;100020.97;20863317;28;20220;-80
2023/08/26 13:45:30;;;;;;;0.47;0.10;;;;;;;21.08;35.83;100017.75;20905869;28;20774;-81
2023/08/26 13:55:34;;;;;;;0.98;0.20;;;;;;;20.88;36.93;100005.09;20899251;28;20226;-81
2023/08/26 14:05:35;;;;;;;0.52;0.30;;;;;;;20.26;38.65;100016.78;20898568;28;20598;-81
2023/08/26 14:15:42;;;;;;;1.90;0.38;;;;;;;21.37;35.26;100002.22;20896436;28;20623;-80
2023/08/26 14:25:44;;;;;;;0.98;0.28;;;;;;;21.61;35.48;100008.31;20877481;28;20249;-80
2023/08/26 14:35:51;;;;;;;1.65;0.30;;;;;;;21.73;35.51;99996.41;20901189;28;20230;-82
2023/08/26 14:45:53;;;;;;;0.65;0.35;;;;;;;21.21;35.84;99987.53;20907761;28;20659;-81
2023/08/26 14:55:58;;;;;;;0.63;0.30;;;;;;;20.70;36.06;99980.13;20898786;28;20234;-80
2023/08/26 15:06:00;;;;;;;1.48;0.20;;;;;;;21.83;35.70;99966.13;20897397;28;20334;-82
2023/08/26 15:16:04;;;;;;;1.10;0.20;;;;;;;22.20;33.96;99943.47;20904794;28;20868;-82
2023/08/26 15:26:06;;;;;;;0.25;0.20;;;;;;;21.24;37.16;99963.00;20882550;28;20258;-82
2023/08/26 15:36:09;;;;;;;1.23;0.25;;;;;;;21.49;37.71;99955.19;20909576;28;20219;-80
2023/08/26 15:46:12;;;;;;;3.03;0.30;;;;;;;21.11;35.38;99936.81;20945975;28;20265;-83
2023/08/26 15:56:16;;;;;;;1.13;0.40;;;;;;;21.71;33.96;99910.91;20912847;28;20703;-80
2023/08/26 16:06:18;;;;;;;2.97;0.50;;;;;;;21.31;34.81;99912.28;20924450;28;20264;-79
2023/08/26 16:16:21;;;;;;;1.25;0.30;;;;;;;21.55;34.08;99895.44;20990352;28;20592;-82
2023/08/26 16:26:23;;;;;;;1.85;0.40;;;;;;;21.87;33.82;99881.81;20968293;28;20250;-86
2023/08/26 16:36:26;;;;;;;2.25;0.70;;;;;;;21.32;35.21;99885.28;20946849;28;20250;-84
2023/08/26 16:46:28;;;;;;;2.25;0.80;;;;;;;21.32;37.42;99891.00;20908267;28;20246;-80
2023/08/26 16:56:32;;;;;;;2.83;0.65;;;;;;;21.49;35.45;99882.78;20905719;28;20216;-79
2023/08/26 17:06:33;;;;;;;6.32;1.00;;;;;;;21.49;35.25;99885.66;20907162;28;20199;-85
2023/08/26 17:16:36;;;;;;;5.63;0.98;;;;;;;20.54;36.38;99895.94;20904535;28;20878;-80
2023/08/26 17:26:38;;;;;;;1.58;0.52;;;;;;;20.84;37.36;99915.59;20876445;28;20499;-80
2023/08/26 17:36:42;;;;;;;1.60;0.77;;;;;;;20.94;37.16;99920.47;20900319;28;20273;-81
2023/08/26 17:46:43;;;;;;;1.65;1.00;;;;;;;21.08;36.82;99935.59;20895636;28;20224;-83
2023/08/26 17:56:47;;;;;;;1.92;0.80;;;;;;;21.10;38.92;99950.31;20880791;28;20592;-81
2023/08/26 18:06:49;;;;;;;2.42;0.80;;;;;;;21.24;39.14;99954.41;20850674;28;20208;-82
2023/08/26 18:16:52;;;;;;;9.27;7.20;;;;;;;20.76;41.73;99971.16;20864623;28;20223;-82
2023/08/26 18:26:54;;;;;;;18.25;11.23;;;;;;;20.68;43.89;99976.03;20857761;28;20612;-79
2023/08/26 18:36:57;;;;;;;1.85;0.80;;;;;;;20.31;42.47;99974.31;20875438;28;20316;-80
2023/08/26 18:46:59;;;;;;;0.88;0.60;;;;;;;20.45;42.19;99990.69;20859102;28;20231;-82
2023/08/26 18:57:03;;;;;;;2.63;1.50;;;;;;;20.26;42.97;99991.06;20883287;28;20234;-82
2023/08/26 19:07:05;;;;;;;1.67;0.60;;;;;;;20.11;41.79;99995.91;20891224;28;20202;-83
2023/08/26 19:17:08;;;;;;;1.85;0.70;;;;;;;20.39;44.04;100009.47;20888266;28;20211;-82
2023/08/26 19:27:10;;;;;;;1.98;0.68;;;;;;;20.31;41.20;100000.03;20883399;28;20196;-85
2023/08/26 19:37:13;;;;;;;1.25;0.63;;;;;;;19.86;43.17;99998.63;20874923;28;20749;-81
2023/08/26 19:47:15;;;;;;;0.90;0.70;;;;;;;19.61;44.17;99995.63;20880904;28;20314;-85
2023/08/26 19:57:24;;;;;;;2.60;0.65;;;;;;;19.88;43.63;99996.16;20883815;28;20307;-83
2023/08/26 20:07:26;;;;;;;3.55;0.70;;;;;;;19.26;47.00;99989.63;20895432;28;20199;-86
2023/08/26 20:17:30;;;;;;;4.78;0.80;;;;;;;18.98;47.87;99993.91;20916019;28;20223;-86
2023/08/26 20:27:33;;;;;;;4.35;1.10;;;;;;;18.81;48.62;99988.06;20896156;28;20195;-83
2023/08/26 20:37:38;;;;;;;2.10;0.82;;;;;;;18.92;47.53;99989.81;20896501;28;20246;-83
2023/08/26 20:47:39;;;;;;;2.15;1.67;;;;;;;18.39;48.10;100009.19;20888178;28;20227;-84
2023/08/26 20:57:43;;;;;;;6.95;2.65;;;;;;;18.54;48.33;100010.16;20896344;28;20219;-84
2023/08/26 21:07:44;;;;;;;3.08;2.00;;;;;;;18.17;50.70;100007.31;20895055;28;20203;-86
2023/08/26 21:17:48;;;;;;;3.67;2.30;;;;;;;17.69;52.29;100000.53;20893014;28;20223;-86
2023/08/26 21:27:50;;;;;;;3.53;1.90;;;;;;;17.65;52.35;100000.50;20896253;28;20589;-84
2023/08/26 21:37:53;;;;;;;4.15;1.80;;;;;;;17.59;53.48;99987.81;20887456;28;20220;-81
2023/08/26 21:47:55;;;;;;;1.85;1.45;;;;;;;17.61;54.01;99990.28;20882284;28;20238;-82
2023/08/26 21:58:03;;;;;;;2.47;1.70;;;;;;;16.99;56.83;100013.28;20892132;28;20314;-85
2023/08/26 22:08:05;;;;;;;3.05;1.80;;;;;;;17.33;55.20;100011.41;20885443;28;20340;-84
2023/08/26 22:18:09;;;;;;;3.20;1.77;;;;;;;16.88;56.66;100008.63;20890905;28;20230;-85
2023/08/26 22:28:11;;;;;;;3.47;1.50;;;;;;;16.36;58.87;100019.41;20891264;28;20227;-84
2023/08/26 22:38:14;;;;;;;3.80;2.17;;;;;;;15.89;60.01;100010.31;20876691;28;20620;-85
2023/08/26 22:48:16;;;;;;;3.45;1.92;;;;;;;16.38;59.76;100011.31;20891231;28;20203;-89
2023/08/26 22:58:19;;;;;;;2.63;1.50;;;;;;;16.41;59.72;100004.88;20892072;28;20227;-83
2023/08/26 23:08:21;;;;;;;2.63;1.60;;;;;;;16.67;59.17;100000.53;20882903;28;20200;-83
2023/08/26 23:18:24;;;;;;;4.05;1.88;;;;;;;16.12;60.98;99982.81;20895771;28;20223;-86
2023/08/26 23:28:27;;;;;;;4.75;2.03;;;;;;;16.47;60.63;99963.63;20882837;28;20227;-88
2023/08/26 23:38:30;;;;;;;2.80;1.90;;;;;;;16.42;59.39;99966.78;20877282;28;20231;-88
2023/08/26 23:48:32;;;;;;;3.88;2.15;;;;;;;16.19;60.81;99991.47;20903346;28;20208;-85
2023/08/26 23:58:35;;;;;;;4.78;2.25;;;;;;;15.99;61.22;100004.84;20884717;28;20228;-85
